sensor_id;sensor_type;location;lat;lon;timestamp;P1;durP1;ratioP1;P2;durP2;ratioP2
9948;SDS011;5013;51.840;8.276;2023-08-31T00:01:38;13.07;;;9.10;;
9948;SDS011;5013;51.840;8.276;2023-08-31T00:04:04;10.73;;;8.40;;
9948;SDS011;5013;51.840;8.276;2023-08-31T00:06:32;11.53;;;8.83;;
9948;SDS011;5013;51.840;8.276;2023-08-31T00:08:58;13.27;;;9.00;;
9948;SDS011;5013;51.840;8.276;2023-08-31T00:11:24;14.30;;;9.03;;
9948;SDS011;5013;51.840;8.276;2023-08-31T00:13:51;11.97;;;10.50;;
9948;SDS011;5013;51.840;8.276;2023-08-31T00:16:17;10.77;;;8.37;;
9948;SDS011;5013;51.840;8.276;2023-08-31T00:18:43;12.40;;;9.20;;
9948;SDS011;5013;51.840;8.276;2023-08-31T00:21:10;10.47;;;9.10;;
9948;SDS011;5013;51.840;8.276;2023-08-31T00:23:36;14.00;;;10.33;;
9948;SDS011;5013;51.840;8.276;2023-08-31T00:26:02;21.13;;;10.93;;
9948;SDS011;5013;51.840;8.276;2023-08-31T00:28:28;15.60;;;9.93;;
9948;SDS011;5013;51.840;8.276;2023-08-31T00:30:53;14.67;;;10.77;;
9948;SDS011;5013;51.840;8.276;2023-08-31T00:33:19;17.87;;;10.77;;
9948;SDS011;5013;51.840;8.276;2023-08-31T00:35:45;15.10;;;11.40;;
9948;SDS011;5013;51.840;8.276;2023-08-31T00:38:14;15.20;;;12.00;;
9948;SDS011;5013;51.840;8.276;2023-08-31T00:40:40;17.57;;;11.07;;
9948;SDS011;5013;51.840;8.276;2023-08-31T00:43:09;15.73;;;11.40;;
9948;SDS011;5013;51.840;8.276;2023-08-31T00:45:35;19.73;;;12.47;;
9948;SDS011;5013;51.840;8.276;2023-08-31T00:48:02;26.73;;;13.67;;
9948;SDS011;5013;51.840;8.276;2023-08-31T00:50:28;15.43;;;13.60;;
9948;SDS011;5013;51.840;8.276;2023-08-31T00:52:54;17.77;;;13.63;;
9948;SDS011;5013;51.840;8.276;2023-08-31T00:55:20;17.17;;;12.67;;
9948;SDS011;5013;51.840;8.276;2023-08-31T00:57:46;18.83;;;12.90;;
9948;SDS011;5013;51.840;8.276;2023-08-31T01:00:11;15.77;;;12.97;;
9948;SDS011;5013;51.840;8.276;2023-08-31T01:08:33;19.40;;;13.13;;
9948;SDS011;5013;51.840;8.276;2023-08-31T01:13:41;15.67;;;12.87;;
9948;SDS011;5013;51.840;8.276;2023-08-31T01:16:16;22.43;;;14.10;;
9948;SDS011;5013;51.840;8.276;2023-08-31T01:18:42;13.50;;;12.07;;
9948;SDS011;5013;51.840;8.276;2023-08-31T01:26:19;15.53;;;13.87;;
9948;SDS011;5013;51.840;8.276;2023-08-31T01:28:49;22.70;;;14.37;;
9948;SDS011;5013;51.840;8.276;2023-08-31T01:31:15;20.00;;;13.50;;
9948;SDS011;5013;51.840;8.276;2023-08-31T01:33:41;16.83;;;12.83;;
9948;SDS011;5013;51.840;8.276;2023-08-31T01:36:12;17.47;;;14.20;;
9948;SDS011;5013;51.840;8.276;2023-08-31T01:38:54;19.87;;;14.13;;
9948;SDS011;5013;51.840;8.276;2023-08-31T01:41:35;17.53;;;14.27;;
9948;SDS011;5013;51.840;8.276;2023-08-31T01:44:05;23.33;;;14.13;;
9948;SDS011;5013;51.840;8.276;2023-08-31T01:46:33;18.80;;;13.03;;
9948;SDS011;5013;51.840;8.276;2023-08-31T01:48:59;15.83;;;12.70;;
9948;SDS011;5013;51.840;8.276;2023-08-31T01:51:25;17.97;;;13.17;;
9948;SDS011;5013;51.840;8.276;2023-08-31T01:53:51;20.13;;;12.07;;
9948;SDS011;5013;51.840;8.276;2023-08-31T01:56:17;19.90;;;13.23;;
9948;SDS011;5013;51.840;8.276;2023-08-31T01:58:42;17.33;;;12.97;;
9948;SDS011;5013;51.840;8.276;2023-08-31T02:01:08;16.10;;;13.10;;
9948;SDS011;5013;51.840;8.276;2023-08-31T02:03:33;25.87;;;13.80;;
9948;SDS011;5013;51.840;8.276;2023-08-31T02:05:59;16.37;;;12.13;;
9948;SDS011;5013;51.840;8.276;2023-08-31T02:08:25;19.00;;;12.67;;
9948;SDS011;5013;51.840;8.276;2023-08-31T02:10:50;19.80;;;11.70;;
9948;SDS011;5013;51.840;8.276;2023-08-31T02:13:16;14.17;;;11.87;;
9948;SDS011;5013;51.840;8.276;2023-08-31T02:15:42;18.33;;;12.23;;
9948;SDS011;5013;51.840;8.276;2023-08-31T02:18:08;15.20;;;10.90;;
9948;SDS011;5013;51.840;8.276;2023-08-31T02:20:33;17.33;;;11.90;;
9948;SDS011;5013;51.840;8.276;2023-08-31T02:22:59;13.17;;;11.00;;
9948;SDS011;5013;51.840;8.276;2023-08-31T02:25:25;17.90;;;12.73;;
9948;SDS011;5013;51.840;8.276;2023-08-31T02:27:53;18.43;;;11.37;;
9948;SDS011;5013;51.840;8.276;2023-08-31T02:30:19;12.13;;;9.30;;
9948;SDS011;5013;51.840;8.276;2023-08-31T02:32:44;12.13;;;9.23;;
9948;SDS011;5013;51.840;8.276;2023-08-31T02:35:10;13.20;;;9.70;;
9948;SDS011;5013;51.840;8.276;2023-08-31T02:37:37;15.73;;;10.37;;
9948;SDS011;5013;51.840;8.276;2023-08-31T02:40:02;15.87;;;11.30;;
9948;SDS011;5013;51.840;8.276;2023-08-31T02:42:29;16.30;;;11.03;;
9948;SDS011;5013;51.840;8.276;2023-08-31T02:44:54;18.27;;;12.00;;
9948;SDS011;5013;51.840;8.276;2023-08-31T02:47:21;19.17;;;11.70;;
9948;SDS011;5013;51.840;8.276;2023-08-31T02:49:46;18.37;;;11.80;;
9948;SDS011;5013;51.840;8.276;2023-08-31T02:52:13;14.93;;;12.63;;
9948;SDS011;5013;51.840;8.276;2023-08-31T02:54:38;16.03;;;12.97;;
9948;SDS011;5013;51.840;8.276;2023-08-31T02:57:04;18.73;;;14.13;;
9948;SDS011;5013;51.840;8.276;2023-08-31T02:59:30;24.07;;;13.80;;
9948;SDS011;5013;51.840;8.276;2023-08-31T03:01:55;20.33;;;13.53;;
9948;SDS011;5013;51.840;8.276;2023-08-31T03:04:21;16.10;;;13.37;;
9948;SDS011;5013;51.840;8.276;2023-08-31T03:06:46;19.93;;;13.73;;
9948;SDS011;5013;51.840;8.276;2023-08-31T03:09:12;20.23;;;13.53;;
9948;SDS011;5013;51.840;8.276;2023-08-31T03:11:38;20.17;;;13.20;;
9948;SDS011;5013;51.840;8.276;2023-08-31T03:14:04;19.27;;;12.87;;
9948;SDS011;5013;51.840;8.276;2023-08-31T03:16:29;21.63;;;13.83;;
9948;SDS011;5013;51.840;8.276;2023-08-31T03:18:55;21.73;;;13.97;;
9948;SDS011;5013;51.840;8.276;2023-08-31T03:21:20;16.80;;;13.80;;
9948;SDS011;5013;51.840;8.276;2023-08-31T03:23:46;14.20;;;12.70;;
9948;SDS011;5013;51.840;8.276;2023-08-31T03:26:12;23.27;;;14.63;;
9948;SDS011;5013;51.840;8.276;2023-08-31T03:28:37;16.83;;;13.27;;
9948;SDS011;5013;51.840;8.276;2023-08-31T03:31:05;16.00;;;12.70;;
9948;SDS011;5013;51.840;8.276;2023-08-31T03:33:30;18.77;;;11.97;;
9948;SDS011;5013;51.840;8.276;2023-08-31T03:36:00;19.77;;;12.53;;
9948;SDS011;5013;51.840;8.276;2023-08-31T03:38:26;21.27;;;13.97;;
9948;SDS011;5013;51.840;8.276;2023-08-31T03:40:52;15.67;;;13.00;;
9948;SDS011;5013;51.840;8.276;2023-08-31T03:43:19;18.67;;;13.33;;
9948;SDS011;5013;51.840;8.276;2023-08-31T03:45:45;15.33;;;12.93;;
9948;SDS011;5013;51.840;8.276;2023-08-31T03:48:10;16.50;;;13.43;;
9948;SDS011;5013;51.840;8.276;2023-08-31T03:50:36;18.73;;;13.30;;
9948;SDS011;5013;51.840;8.276;2023-08-31T03:53:02;17.13;;;12.00;;
9948;SDS011;5013;51.840;8.276;2023-08-31T03:55:28;18.07;;;12.80;;
9948;SDS011;5013;51.840;8.276;2023-08-31T03:57:54;17.53;;;13.27;;
9948;SDS011;5013;51.840;8.276;2023-08-31T04:00:19;14.93;;;13.13;;
9948;SDS011;5013;51.840;8.276;2023-08-31T04:02:45;17.57;;;12.67;;
9948;SDS011;5013;51.840;8.276;2023-08-31T04:05:11;16.23;;;12.30;;
9948;SDS011;5013;51.840;8.276;2023-08-31T04:07:36;17.07;;;11.77;;
9948;SDS011;5013;51.840;8.276;2023-08-31T04:10:02;16.13;;;12.10;;
9948;SDS011;5013;51.840;8.276;2023-08-31T04:12:29;15.13;;;12.53;;
9948;SDS011;5013;51.840;8.276;2023-08-31T04:14:55;16.57;;;11.13;;
9948;SDS011;5013;51.840;8.276;2023-08-31T04:17:21;16.63;;;12.33;;
9948;SDS011;5013;51.840;8.276;2023-08-31T04:19:47;14.23;;;11.50;;
9948;SDS011;5013;51.840;8.276;2023-08-31T04:22:12;15.60;;;11.47;;
9948;SDS011;5013;51.840;8.276;2023-08-31T04:24:38;12.67;;;10.77;;
9948;SDS011;5013;51.840;8.276;2023-08-31T04:27:04;14.47;;;11.30;;
9948;SDS011;5013;51.840;8.276;2023-08-31T04:29:29;18.80;;;12.13;;
9948;SDS011;5013;51.840;8.276;2023-08-31T04:31:55;14.17;;;11.50;;
9948;SDS011;5013;51.840;8.276;2023-08-31T04:34:20;14.23;;;12.33;;
9948;SDS011;5013;51.840;8.276;2023-08-31T04:36:46;14.93;;;11.37;;
9948;SDS011;5013;51.840;8.276;2023-08-31T04:39:11;13.03;;;11.63;;
9948;SDS011;5013;51.840;8.276;2023-08-31T04:41:37;13.83;;;11.67;;
9948;SDS011;5013;51.840;8.276;2023-08-31T04:44:02;18.33;;;13.37;;
9948;SDS011;5013;51.840;8.276;2023-08-31T04:46:28;15.00;;;13.40;;
9948;SDS011;5013;51.840;8.276;2023-08-31T04:48:54;18.30;;;14.07;;
9948;SDS011;5013;51.840;8.276;2023-08-31T04:51:29;14.10;;;12.60;;
9948;SDS011;5013;51.840;8.276;2023-08-31T04:53:59;23.00;;;14.47;;
9948;SDS011;5013;51.840;8.276;2023-08-31T04:56:29;21.20;;;17.67;;
9948;SDS011;5013;51.840;8.276;2023-08-31T04:58:56;23.90;;;17.27;;
9948;SDS011;5013;51.840;8.276;2023-08-31T05:01:21;20.83;;;18.03;;
9948;SDS011;5013;51.840;8.276;2023-08-31T05:03:47;22.00;;;18.63;;
9948;SDS011;5013;51.840;8.276;2023-08-31T05:06:13;23.93;;;19.50;;
9948;SDS011;5013;51.840;8.276;2023-08-31T05:08:38;25.97;;;19.40;;
9948;SDS011;5013;51.840;8.276;2023-08-31T05:11:04;25.83;;;20.27;;
9948;SDS011;5013;51.840;8.276;2023-08-31T05:13:29;25.57;;;21.17;;
9948;SDS011;5013;51.840;8.276;2023-08-31T05:15:55;24.60;;;21.00;;
9948;SDS011;5013;51.840;8.276;2023-08-31T05:18:20;25.37;;;20.20;;
9948;SDS011;5013;51.840;8.276;2023-08-31T05:20:46;28.27;;;19.47;;
9948;SDS011;5013;51.840;8.276;2023-08-31T05:23:13;20.73;;;18.53;;
9948;SDS011;5013;51.840;8.276;2023-08-31T05:25:42;22.67;;;17.50;;
9948;SDS011;5013;51.840;8.276;2023-08-31T05:28:08;21.47;;;16.57;;
9948;SDS011;5013;51.840;8.276;2023-08-31T05:30:34;18.03;;;15.77;;
9948;SDS011;5013;51.840;8.276;2023-08-31T05:33:00;23.33;;;17.30;;
9948;SDS011;5013;51.840;8.276;2023-08-31T05:35:26;19.77;;;16.30;;
9948;SDS011;5013;51.840;8.276;2023-08-31T05:37:51;20.17;;;16.03;;
9948;SDS011;5013;51.840;8.276;2023-08-31T05:40:17;18.80;;;14.60;;
9948;SDS011;5013;51.840;8.276;2023-08-31T05:42:43;22.93;;;16.77;;
9948;SDS011;5013;51.840;8.276;2023-08-31T05:45:09;19.50;;;14.97;;
9948;SDS011;5013;51.840;8.276;2023-08-31T05:47:34;16.63;;;14.43;;
9948;SDS011;5013;51.840;8.276;2023-08-31T05:50:00;17.50;;;14.80;;
9948;SDS011;5013;51.840;8.276;2023-08-31T05:52:26;19.00;;;14.33;;
9948;SDS011;5013;51.840;8.276;2023-08-31T05:54:52;17.97;;;15.53;;
9948;SDS011;5013;51.840;8.276;2023-08-31T05:57:18;18.03;;;14.60;;
9948;SDS011;5013;51.840;8.276;2023-08-31T05:59:45;20.03;;;15.93;;
9948;SDS011;5013;51.840;8.276;2023-08-31T06:02:12;15.20;;;13.67;;
9948;SDS011;5013;51.840;8.276;2023-08-31T06:04:37;18.30;;;14.57;;
9948;SDS011;5013;51.840;8.276;2023-08-31T06:07:03;16.73;;;15.00;;
9948;SDS011;5013;51.840;8.276;2023-08-31T06:09:28;14.87;;;13.37;;
9948;SDS011;5013;51.840;8.276;2023-08-31T06:11:54;19.73;;;15.60;;
9948;SDS011;5013;51.840;8.276;2023-08-31T06:14:20;15.50;;;13.77;;
9948;SDS011;5013;51.840;8.276;2023-08-31T06:16:45;15.77;;;13.37;;
9948;SDS011;5013;51.840;8.276;2023-08-31T06:19:11;14.37;;;12.87;;
9948;SDS011;5013;51.840;8.276;2023-08-31T06:21:40;13.50;;;12.13;;
9948;SDS011;5013;51.840;8.276;2023-08-31T06:24:06;16.40;;;13.60;;
9948;SDS011;5013;51.840;8.276;2023-08-31T06:26:35;18.17;;;13.13;;
9948;SDS011;5013;51.840;8.276;2023-08-31T06:29:00;16.63;;;13.73;;
9948;SDS011;5013;51.840;8.276;2023-08-31T06:31:28;14.87;;;11.63;;
9948;SDS011;5013;51.840;8.276;2023-08-31T06:33:54;15.27;;;12.60;;
9948;SDS011;5013;51.840;8.276;2023-08-31T06:36:19;16.20;;;13.13;;
9948;SDS011;5013;51.840;8.276;2023-08-31T06:38:45;13.83;;;12.47;;
9948;SDS011;5013;51.840;8.276;2023-08-31T06:41:11;16.83;;;13.27;;
9948;SDS011;5013;51.840;8.276;2023-08-31T06:43:36;17.03;;;13.10;;
9948;SDS011;5013;51.840;8.276;2023-08-31T06:46:02;16.57;;;13.70;;
9948;SDS011;5013;51.840;8.276;2023-08-31T06:48:27;14.17;;;12.77;;
9948;SDS011;5013;51.840;8.276;2023-08-31T06:50:53;17.43;;;12.27;;
9948;SDS011;5013;51.840;8.276;2023-08-31T06:53:19;14.40;;;12.90;;
9948;SDS011;5013;51.840;8.276;2023-08-31T06:55:45;12.97;;;11.50;;
9948;SDS011;5013;51.840;8.276;2023-08-31T06:58:10;12.63;;;11.33;;
9948;SDS011;5013;51.840;8.276;2023-08-31T07:00:36;13.77;;;11.00;;
9948;SDS011;5013;51.840;8.276;2023-08-31T07:03:02;12.10;;;10.90;;
9948;SDS011;5013;51.840;8.276;2023-08-31T07:05:32;15.30;;;10.80;;
9948;SDS011;5013;51.840;8.276;2023-08-31T07:08:00;14.37;;;11.80;;
9948;SDS011;5013;51.840;8.276;2023-08-31T07:10:27;13.03;;;11.63;;
9948;SDS011;5013;51.840;8.276;2023-08-31T07:12:53;12.30;;;10.90;;
9948;SDS011;5013;51.840;8.276;2023-08-31T07:15:18;12.87;;;11.60;;
9948;SDS011;5013;51.840;8.276;2023-08-31T07:17:44;12.40;;;10.30;;
9948;SDS011;5013;51.840;8.276;2023-08-31T07:20:10;12.13;;;10.80;;
9948;SDS011;5013;51.840;8.276;2023-08-31T07:22:37;12.67;;;11.33;;
9948;SDS011;5013;51.840;8.276;2023-08-31T07:25:02;13.73;;;12.03;;
9948;SDS011;5013;51.840;8.276;2023-08-31T07:27:29;12.90;;;11.60;;
9948;SDS011;5013;51.840;8.276;2023-08-31T07:29:55;14.80;;;11.17;;
9948;SDS011;5013;51.840;8.276;2023-08-31T07:32:20;12.20;;;10.73;;
9948;SDS011;5013;51.840;8.276;2023-08-31T07:34:47;12.00;;;10.63;;
9948;SDS011;5013;51.840;8.276;2023-08-31T07:37:12;12.00;;;10.90;;
9948;SDS011;5013;51.840;8.276;2023-08-31T07:39:38;12.33;;;10.40;;
9948;SDS011;5013;51.840;8.276;2023-08-31T07:42:04;12.83;;;11.60;;
9948;SDS011;5013;51.840;8.276;2023-08-31T07:44:30;13.70;;;12.30;;
9948;SDS011;5013;51.840;8.276;2023-08-31T07:46:56;14.40;;;13.00;;
9948;SDS011;5013;51.840;8.276;2023-08-31T07:49:22;13.57;;;12.17;;
9948;SDS011;5013;51.840;8.276;2023-08-31T07:51:47;14.57;;;11.20;;
9948;SDS011;5013;51.840;8.276;2023-08-31T07:54:20;13.43;;;12.00;;
9948;SDS011;5013;51.840;8.276;2023-08-31T07:56:46;13.40;;;12.10;;
9948;SDS011;5013;51.840;8.276;2023-08-31T07:59:12;13.67;;;12.47;;
9948;SDS011;5013;51.840;8.276;2023-08-31T08:01:37;12.93;;;11.77;;
9948;SDS011;5013;51.840;8.276;2023-08-31T08:04:03;13.20;;;11.90;;
9948;SDS011;5013;51.840;8.276;2023-08-31T08:06:28;13.87;;;10.63;;
9948;SDS011;5013;51.840;8.276;2023-08-31T08:08:54;12.73;;;11.07;;
9948;SDS011;5013;51.840;8.276;2023-08-31T08:11:22;12.50;;;10.83;;
9948;SDS011;5013;51.840;8.276;2023-08-31T08:13:48;13.83;;;11.27;;
9948;SDS011;5013;51.840;8.276;2023-08-31T08:16:13;10.57;;;9.67;;
9948;SDS011;5013;51.840;8.276;2023-08-31T08:18:39;10.63;;;9.67;;
9948;SDS011;5013;51.840;8.276;2023-08-31T08:21:06;9.87;;;8.93;;
9948;SDS011;5013;51.840;8.276;2023-08-31T08:23:32;11.13;;;9.57;;
9948;SDS011;5013;51.840;8.276;2023-08-31T08:25:57;12.20;;;9.90;;
9948;SDS011;5013;51.840;8.276;2023-08-31T08:28:24;11.23;;;9.63;;
9948;SDS011;5013;51.840;8.276;2023-08-31T08:30:50;10.20;;;9.20;;
9948;SDS011;5013;51.840;8.276;2023-08-31T08:33:16;12.03;;;9.80;;
9948;SDS011;5013;51.840;8.276;2023-08-31T08:35:41;10.67;;;9.57;;
9948;SDS011;5013;51.840;8.276;2023-08-31T08:38:07;10.50;;;9.43;;
9948;SDS011;5013;51.840;8.276;2023-08-31T08:40:34;13.50;;;9.43;;
9948;SDS011;5013;51.840;8.276;2023-08-31T08:43:00;11.00;;;9.80;;
9948;SDS011;5013;51.840;8.276;2023-08-31T08:45:27;10.27;;;9.27;;
9948;SDS011;5013;51.840;8.276;2023-08-31T08:48:01;11.20;;;9.50;;
9948;SDS011;5013;51.840;8.276;2023-08-31T08:50:30;11.07;;;7.93;;
9948;SDS011;5013;51.840;8.276;2023-08-31T08:52:58;11.13;;;9.30;;
9948;SDS011;5013;51.840;8.276;2023-08-31T08:55:25;10.30;;;9.30;;
9948;SDS011;5013;51.840;8.276;2023-08-31T08:57:50;11.33;;;9.40;;
9948;SDS011;5013;51.840;8.276;2023-08-31T09:00:16;9.13;;;8.17;;
9948;SDS011;5013;51.840;8.276;2023-08-31T09:02:42;12.03;;;7.43;;
9948;SDS011;5013;51.840;8.276;2023-08-31T09:05:07;8.47;;;7.60;;
9948;SDS011;5013;51.840;8.276;2023-08-31T09:07:36;10.50;;;6.90;;
9948;SDS011;5013;51.840;8.276;2023-08-31T09:10:02;6.97;;;6.27;;
9948;SDS011;5013;51.840;8.276;2023-08-31T09:12:29;10.47;;;6.20;;
9948;SDS011;5013;51.840;8.276;2023-08-31T09:17:41;7.70;;;6.07;;
9948;SDS011;5013;51.840;8.276;2023-08-31T09:20:24;6.57;;;5.80;;
9948;SDS011;5013;51.840;8.276;2023-08-31T09:22:49;5.73;;;5.10;;
9948;SDS011;5013;51.840;8.276;2023-08-31T09:25:17;6.50;;;5.90;;
9948;SDS011;5013;51.840;8.276;2023-08-31T09:27:45;7.00;;;6.30;;
9948;SDS011;5013;51.840;8.276;2023-08-31T09:30:10;5.67;;;4.63;;
9948;SDS011;5013;51.840;8.276;2023-08-31T09:32:36;6.10;;;4.83;;
9948;SDS011;5013;51.840;8.276;2023-08-31T09:35:02;6.20;;;5.00;;
9948;SDS011;5013;51.840;8.276;2023-08-31T09:37:28;12.97;;;6.97;;
9948;SDS011;5013;51.840;8.276;2023-08-31T09:39:54;5.53;;;4.57;;
9948;SDS011;5013;51.840;8.276;2023-08-31T09:42:20;7.67;;;4.30;;
9948;SDS011;5013;51.840;8.276;2023-08-31T09:44:45;5.70;;;3.53;;
9948;SDS011;5013;51.840;8.276;2023-08-31T09:47:14;5.07;;;3.70;;
9948;SDS011;5013;51.840;8.276;2023-08-31T09:49:41;3.63;;;3.13;;
9948;SDS011;5013;51.840;8.276;2023-08-31T09:52:08;5.40;;;3.87;;
9948;SDS011;5013;51.840;8.276;2023-08-31T09:54:34;3.73;;;3.17;;
9948;SDS011;5013;51.840;8.276;2023-08-31T09:57:01;6.93;;;3.57;;
9948;SDS011;5013;51.840;8.276;2023-08-31T09:59:27;7.37;;;3.90;;
9948;SDS011;5013;51.840;8.276;2023-08-31T10:01:53;5.50;;;3.00;;
9948;SDS011;5013;51.840;8.276;2023-08-31T10:04:21;6.97;;;3.50;;
9948;SDS011;5013;51.840;8.276;2023-08-31T10:06:48;9.33;;;3.63;;
9948;SDS011;5013;51.840;8.276;2023-08-31T10:09:15;8.97;;;4.20;;
9948;SDS011;5013;51.840;8.276;2023-08-31T10:11:41;4.30;;;2.80;;
9948;SDS011;5013;51.840;8.276;2023-08-31T10:14:08;6.03;;;3.47;;
9948;SDS011;5013;51.840;8.276;2023-08-31T10:16:35;4.13;;;3.30;;
9948;SDS011;5013;51.840;8.276;2023-08-31T10:19:04;7.17;;;3.20;;
9948;SDS011;5013;51.840;8.276;2023-08-31T10:21:29;6.43;;;3.00;;
9948;SDS011;5013;51.840;8.276;2023-08-31T10:23:55;5.43;;;3.27;;
9948;SDS011;5013;51.840;8.276;2023-08-31T10:26:27;4.00;;;3.30;;
9948;SDS011;5013;51.840;8.276;2023-08-31T10:28:54;7.20;;;3.20;;
9948;SDS011;5013;51.840;8.276;2023-08-31T10:31:21;6.37;;;3.17;;
9948;SDS011;5013;51.840;8.276;2023-08-31T10:34:08;5.47;;;3.00;;
9948;SDS011;5013;51.840;8.276;2023-08-31T10:36:39;7.53;;;3.37;;
9948;SDS011;5013;51.840;8.276;2023-08-31T10:41:42;4.60;;;2.80;;
9948;SDS011;5013;51.840;8.276;2023-08-31T10:44:20;4.63;;;2.50;;
9948;SDS011;5013;51.840;8.276;2023-08-31T10:46:50;3.47;;;2.50;;
9948;SDS011;5013;51.840;8.276;2023-08-31T10:49:20;5.80;;;2.53;;
9948;SDS011;5013;51.840;8.276;2023-08-31T10:51:53;2.73;;;2.00;;
9948;SDS011;5013;51.840;8.276;2023-08-31T10:54:39;3.17;;;2.20;;
9948;SDS011;5013;51.840;8.276;2023-08-31T10:57:05;3.40;;;1.77;;
9948;SDS011;5013;51.840;8.276;2023-08-31T10:59:47;3.00;;;2.10;;
9948;SDS011;5013;51.840;8.276;2023-08-31T11:05:12;2.53;;;1.70;;
9948;SDS011;5013;51.840;8.276;2023-08-31T11:12:42;3.30;;;1.57;;
9948;SDS011;5013;51.840;8.276;2023-08-31T11:15:19;1.83;;;1.60;;
9948;SDS011;5013;51.840;8.276;2023-08-31T11:17:46;3.00;;;1.70;;
9948;SDS011;5013;51.840;8.276;2023-08-31T11:20:15;4.93;;;2.03;;
9948;SDS011;5013;51.840;8.276;2023-08-31T11:22:51;8.37;;;1.77;;
9948;SDS011;5013;51.840;8.276;2023-08-31T11:25:19;5.90;;;1.57;;
9948;SDS011;5013;51.840;8.276;2023-08-31T11:27:53;5.50;;;1.67;;
9948;SDS011;5013;51.840;8.276;2023-08-31T11:30:24;2.63;;;1.53;;
9948;SDS011;5013;51.840;8.276;2023-08-31T11:32:50;2.97;;;1.40;;
9948;SDS011;5013;51.840;8.276;2023-08-31T11:35:19;2.87;;;1.80;;
9948;SDS011;5013;51.840;8.276;2023-08-31T11:37:50;3.60;;;1.50;;
9948;SDS011;5013;51.840;8.276;2023-08-31T11:40:17;5.90;;;1.90;;
9948;SDS011;5013;51.840;8.276;2023-08-31T11:42:43;2.43;;;1.90;;
9948;SDS011;5013;51.840;8.276;2023-08-31T11:45:10;3.20;;;1.60;;
9948;SDS011;5013;51.840;8.276;2023-08-31T11:47:37;3.17;;;1.70;;
9948;SDS011;5013;51.840;8.276;2023-08-31T11:50:04;3.20;;;1.77;;
9948;SDS011;5013;51.840;8.276;2023-08-31T11:52:31;4.10;;;1.50;;
9948;SDS011;5013;51.840;8.276;2023-08-31T11:54:57;4.47;;;1.67;;
9948;SDS011;5013;51.840;8.276;2023-08-31T11:57:26;3.13;;;1.70;;
9948;SDS011;5013;51.840;8.276;2023-08-31T11:59:53;3.37;;;1.90;;
9948;SDS011;5013;51.840;8.276;2023-08-31T12:02:21;4.83;;;2.93;;
9948;SDS011;5013;51.840;8.276;2023-08-31T12:04:46;10.67;;;6.30;;
9948;SDS011;5013;51.840;8.276;2023-08-31T12:07:16;58.40;;;38.17;;
9948;SDS011;5013;51.840;8.276;2023-08-31T12:09:43;72.53;;;52.67;;
9948;SDS011;5013;51.840;8.276;2023-08-31T12:12:09;11.93;;;10.27;;
9948;SDS011;5013;51.840;8.276;2023-08-31T12:14:37;4.60;;;3.90;;
9948;SDS011;5013;51.840;8.276;2023-08-31T12:17:05;3.93;;;2.13;;
9948;SDS011;5013;51.840;8.276;2023-08-31T12:19:32;3.70;;;1.80;;
9948;SDS011;5013;51.840;8.276;2023-08-31T12:22:01;3.83;;;2.00;;
9948;SDS011;5013;51.840;8.276;2023-08-31T12:24:27;1.80;;;1.70;;
9948;SDS011;5013;51.840;8.276;2023-08-31T12:26:52;2.53;;;1.60;;
9948;SDS011;5013;51.840;8.276;2023-08-31T12:29:22;2.67;;;2.00;;
9948;SDS011;5013;51.840;8.276;2023-08-31T12:31:48;3.47;;;1.80;;
9948;SDS011;5013;51.840;8.276;2023-08-31T12:34:14;3.13;;;1.93;;
9948;SDS011;5013;51.840;8.276;2023-08-31T12:36:40;3.13;;;1.80;;
9948;SDS011;5013;51.840;8.276;2023-08-31T12:39:06;2.93;;;1.80;;
9948;SDS011;5013;51.840;8.276;2023-08-31T12:41:35;1.90;;;1.80;;
9948;SDS011;5013;51.840;8.276;2023-08-31T12:44:01;3.47;;;2.00;;
9948;SDS011;5013;51.840;8.276;2023-08-31T12:46:30;1.70;;;1.60;;
9948;SDS011;5013;51.840;8.276;2023-08-31T12:48:56;3.63;;;1.90;;
9948;SDS011;5013;51.840;8.276;2023-08-31T12:51:22;2.03;;;1.83;;
9948;SDS011;5013;51.840;8.276;2023-08-31T12:53:48;2.47;;;1.90;;
9948;SDS011;5013;51.840;8.276;2023-08-31T12:56:13;3.47;;;1.83;;
9948;SDS011;5013;51.840;8.276;2023-08-31T12:58:46;1.70;;;1.60;;
9948;SDS011;5013;51.840;8.276;2023-08-31T13:01:13;2.97;;;1.60;;
9948;SDS011;5013;51.840;8.276;2023-08-31T13:03:39;4.70;;;2.00;;
9948;SDS011;5013;51.840;8.276;2023-08-31T13:06:04;3.47;;;1.70;;
9948;SDS011;5013;51.840;8.276;2023-08-31T13:08:30;1.97;;;1.80;;
9948;SDS011;5013;51.840;8.276;2023-08-31T13:10:55;2.23;;;2.00;;
9948;SDS011;5013;51.840;8.276;2023-08-31T13:13:21;2.93;;;2.03;;
9948;SDS011;5013;51.840;8.276;2023-08-31T13:15:52;2.77;;;2.07;;
9948;SDS011;5013;51.840;8.276;2023-08-31T13:18:19;2.40;;;1.93;;
9948;SDS011;5013;51.840;8.276;2023-08-31T13:20:51;2.30;;;1.80;;
9948;SDS011;5013;51.840;8.276;2023-08-31T13:23:17;2.70;;;2.03;;
9948;SDS011;5013;51.840;8.276;2023-08-31T13:25:43;5.03;;;2.37;;
9948;SDS011;5013;51.840;8.276;2023-08-31T13:28:09;4.23;;;2.13;;
9948;SDS011;5013;51.840;8.276;2023-08-31T13:30:35;3.57;;;1.93;;
9948;SDS011;5013;51.840;8.276;2023-08-31T13:33:00;3.37;;;2.10;;
9948;SDS011;5013;51.840;8.276;2023-08-31T13:35:26;4.77;;;3.63;;
9948;SDS011;5013;51.840;8.276;2023-08-31T13:37:52;3.63;;;2.43;;
9948;SDS011;5013;51.840;8.276;2023-08-31T13:40:18;4.40;;;2.43;;
9948;SDS011;5013;51.840;8.276;2023-08-31T13:42:53;7.83;;;3.37;;
9948;SDS011;5013;51.840;8.276;2023-08-31T13:45:21;7.63;;;2.80;;
9948;SDS011;5013;51.840;8.276;2023-08-31T13:47:47;1.80;;;1.70;;
9948;SDS011;5013;51.840;8.276;2023-08-31T13:50:14;2.00;;;1.80;;
9948;SDS011;5013;51.840;8.276;2023-08-31T13:52:43;3.60;;;2.20;;
9948;SDS011;5013;51.840;8.276;2023-08-31T13:55:08;5.17;;;2.70;;
9948;SDS011;5013;51.840;8.276;2023-08-31T13:57:34;3.33;;;2.27;;
9948;SDS011;5013;51.840;8.276;2023-08-31T14:00:00;3.07;;;2.40;;
9948;SDS011;5013;51.840;8.276;2023-08-31T14:02:26;2.30;;;2.10;;
9948;SDS011;5013;51.840;8.276;2023-08-31T14:04:52;4.23;;;2.17;;
9948;SDS011;5013;51.840;8.276;2023-08-31T14:07:19;2.30;;;1.67;;
9948;SDS011;5013;51.840;8.276;2023-08-31T14:09:44;2.23;;;1.70;;
9948;SDS011;5013;51.840;8.276;2023-08-31T14:12:10;3.53;;;2.20;;
9948;SDS011;5013;51.840;8.276;2023-08-31T14:14:35;3.83;;;1.63;;
9948;SDS011;5013;51.840;8.276;2023-08-31T14:17:01;3.47;;;1.67;;
9948;SDS011;5013;51.840;8.276;2023-08-31T14:19:28;2.47;;;1.47;;
9948;SDS011;5013;51.840;8.276;2023-08-31T14:21:54;2.33;;;1.77;;
9948;SDS011;5013;51.840;8.276;2023-08-31T14:24:19;5.53;;;1.83;;
9948;SDS011;5013;51.840;8.276;2023-08-31T14:26:45;1.70;;;1.60;;
9948;SDS011;5013;51.840;8.276;2023-08-31T14:29:11;4.00;;;1.87;;
9948;SDS011;5013;51.840;8.276;2023-08-31T14:31:37;2.60;;;2.40;;
9948;SDS011;5013;51.840;8.276;2023-08-31T14:34:03;1.70;;;1.60;;
9948;SDS011;5013;51.840;8.276;2023-08-31T14:36:28;2.53;;;1.57;;
9948;SDS011;5013;51.840;8.276;2023-08-31T14:38:54;2.73;;;1.73;;
9948;SDS011;5013;51.840;8.276;2023-08-31T14:41:19;1.60;;;1.50;;
9948;SDS011;5013;51.840;8.276;2023-08-31T14:43:45;3.30;;;2.17;;
9948;SDS011;5013;51.840;8.276;2023-08-31T14:46:10;2.20;;;2.00;;
9948;SDS011;5013;51.840;8.276;2023-08-31T14:48:36;2.60;;;2.40;;
9948;SDS011;5013;51.840;8.276;2023-08-31T14:51:02;5.17;;;2.27;;
9948;SDS011;5013;51.840;8.276;2023-08-31T14:53:28;2.73;;;2.50;;
9948;SDS011;5013;51.840;8.276;2023-08-31T14:55:53;2.60;;;2.00;;
9948;SDS011;5013;51.840;8.276;2023-08-31T14:58:19;2.20;;;2.00;;
9948;SDS011;5013;51.840;8.276;2023-08-31T15:00:45;2.50;;;2.27;;
9948;SDS011;5013;51.840;8.276;2023-08-31T15:03:11;2.60;;;2.37;;
9948;SDS011;5013;51.840;8.276;2023-08-31T15:05:37;3.43;;;2.30;;
9948;SDS011;5013;51.840;8.276;2023-08-31T15:08:06;2.67;;;2.47;;
9948;SDS011;5013;51.840;8.276;2023-08-31T15:10:32;2.57;;;2.37;;
9948;SDS011;5013;51.840;8.276;2023-08-31T15:12:57;3.07;;;2.87;;
9948;SDS011;5013;51.840;8.276;2023-08-31T15:15:26;2.60;;;2.40;;
9948;SDS011;5013;51.840;8.276;2023-08-31T15:17:53;3.43;;;2.30;;
9948;SDS011;5013;51.840;8.276;2023-08-31T15:20:18;4.23;;;2.30;;
9948;SDS011;5013;51.840;8.276;2023-08-31T15:22:44;3.67;;;2.30;;
9948;SDS011;5013;51.840;8.276;2023-08-31T15:25:10;3.03;;;2.47;;